Time;durP1;ratioP1;P1;durP2;ratioP2;P2;SDS_P1;SDS_P2;PMS_P1;PMS_P2;Temp;Humidity;BMP_temperature;BMP_pressure;BME280_temperature;BME280_humidity;BME280_pressure;Samples;Min_cycle;Max_cycle;Signal;HPM_P1;HPM_P2
2023/01/12 00:01:29;;;;;;;9.43;2.38;;;;;;;;;;5034602;28;20050;-77
2023/01/12 00:03:55;;;;;;;12.02;2.65;;;;;;;;;;5024644;28;20050;-77
2023/01/12 00:06:22;;;;;;;11.82;2.90;;;;;;;;;;5029389;28;20527;-77
2023/01/12 00:08:49;;;;;;;11.48;2.90;;;;;;;;;;5036394;28;20072;-78
2023/01/12 00:11:16;;;;;;;12.25;3.00;;;;;;;;;;5034051;28;20056;-78
2023/01/12 00:13:42;;;;;;;10.38;3.58;;;;;;;;;;5029608;28;20103;-78
2023/01/12 00:16:42;;;;;;;12.30;3.20;;;;;;;;;;5027988;28;20083;-78
2023/01/12 00:19:09;;;;;;;13.23;3.97;;;;;;;;;;5029975;28;20045;-78
2023/01/12 00:21:42;;;;;;;12.77;3.30;;;;;;;;;;5035584;28;20622;-77
2023/01/12 00:24:08;;;;;;;15.32;3.70;;;;;;;;;;5032817;28;20049;-78
2023/01/12 00:26:34;;;;;;;16.30;3.85;;;;;;;;;;5034968;28;20521;-77
2023/01/12 00:29:00;;;;;;;15.48;3.55;;;;;;;;;;5035709;28;20128;-78
2023/01/12 00:31:26;;;;;;;14.25;4.00;;;;;;;;;;5035273;28;20048;-78
2023/01/12 00:33:52;;;;;;;14.73;3.42;;;;;;;;;;5034905;28;20045;-77
2023/01/12 00:36:18;;;;;;;15.48;3.83;;;;;;;;;;5035522;28;20048;-77
2023/01/12 00:38:44;;;;;;;15.38;3.60;;;;;;;;;;5021430;28;20046;-77
2023/01/12 00:45:20;;;;;;;15.13;3.55;;;;;;;;;;5015339;28;20041;-77
2023/01/12 00:46:42;;;;;;;16.42;3.80;;;;;;;;;;5023266;28;20476;-77
2023/01/12 00:49:08;;;;;;;14.20;3.67;;;;;;;;;;5034219;28;20100;-77
2023/01/12 00:51:34;;;;;;;17.83;4.05;;;;;;;;;;5035291;28;20056;-77
2023/01/12 00:54:03;;;;;;;15.18;3.58;;;;;;;;;;5028847;28;20129;-77
2023/01/12 00:56:33;;;;;;;15.48;3.75;;;;;;;;;;5020433;28;20585;-77
2023/01/12 00:58:59;;;;;;;16.63;3.47;;;;;;;;;;5033482;28;20080;-77
2023/01/12 01:01:25;;;;;;;18.58;3.92;;;;;;;;;;4999567;28;20068;-77
2023/01/12 01:03:51;;;;;;;15.45;4.05;;;;;;;;;;5033099;28;20041;-77
2023/01/12 01:06:17;;;;;;;14.88;3.33;;;;;;;;;;5034861;28;20041;-77
2023/01/12 01:08:43;;;;;;;17.65;4.53;;;;;;;;;;5034896;28;20082;-77
2023/01/12 01:11:11;;;;;;;21.60;4.30;;;;;;;;;;5018603;28;20077;-78
2023/01/12 01:13:44;;;;;;;17.13;4.28;;;;;;;;;;5033569;28;20110;-77
2023/01/12 01:16:12;;;;;;;19.25;4.65;;;;;;;;;;5025182;28;20049;-77
2023/01/12 01:18:38;;;;;;;15.25;4.30;;;;;;;;;;5024521;28;20034;-77
2023/01/12 01:21:04;;;;;;;16.85;3.58;;;;;;;;;;5031523;28;20061;-78
2023/01/12 01:23:33;;;;;;;20.77;3.95;;;;;;;;;;5014006;28;20045;-78
2023/01/12 01:26:03;;;;;;;16.42;4.07;;;;;;;;;;5014474;28;20129;-77
2023/01/12 01:28:29;;;;;;;19.92;4.15;;;;;;;;;;5028268;28;20046;-77
2023/01/12 01:31:02;;;;;;;14.88;3.72;;;;;;;;;;5025852;28;20042;-77
2023/01/12 01:33:28;;;;;;;17.05;3.78;;;;;;;;;;5014386;28;20444;-78
2023/01/12 01:35:55;;;;;;;18.00;4.47;;;;;;;;;;5013329;28;20041;-78
2023/01/12 01:38:21;;;;;;;14.82;3.65;;;;;;;;;;5013170;28;20614;-77
2023/01/12 01:40:47;;;;;;;14.60;3.58;;;;;;;;;;5017974;28;20046;-78
2023/01/12 01:43:14;;;;;;;22.20;3.85;;;;;;;;;;5046399;28;20081;-78
2023/01/12 01:45:41;;;;;;;18.20;4.18;;;;;;;;;;5021916;28;20049;-78
2023/01/12 01:48:09;;;;;;;16.05;3.42;;;;;;;;;;5034450;28;20381;-77
2023/01/12 01:50:37;;;;;;;10.02;2.85;;;;;;;;;;5018853;28;20473;-78
2023/01/12 01:53:05;;;;;;;13.82;3.92;;;;;;;;;;5014815;28;20125;-78
2023/01/12 01:55:47;;;;;;;16.85;4.00;;;;;;;;;;5016247;28;20411;-78
2023/01/12 01:58:23;;;;;;;12.98;3.90;;;;;;;;;;5031818;28;20037;-77
2023/01/12 02:00:51;;;;;;;18.02;3.95;;;;;;;;;;5026667;28;20069;-77
2023/01/12 02:03:17;;;;;;;13.57;3.28;;;;;;;;;;5029460;28;20496;-78
2023/01/12 02:05:45;;;;;;;15.32;3.78;;;;;;;;;;5033914;28;20045;-78
2023/01/12 02:08:34;;;;;;;19.48;4.32;;;;;;;;;;5033796;28;20045;-77
2023/01/12 02:11:01;;;;;;;17.10;3.60;;;;;;;;;;4952560;28;20077;-78
2023/01/12 02:16:24;;;;;;;15.98;4.13;;;;;;;;;;4951462;29;20058;-78
2023/01/12 02:18:50;;;;;;;19.08;4.10;;;;;;;;;;4953051;29;20616;-78
2023/01/12 02:21:18;;;;;;;19.23;4.57;;;;;;;;;;4953385;29;20481;-78
2023/01/12 02:23:56;;;;;;;24.45;3.97;;;;;;;;;;4953480;29;20126;-78
2023/01/12 02:26:41;;;;;;;16.77;4.13;;;;;;;;;;4925496;29;20035;-78
2023/01/12 02:29:25;;;;;;;23.80;4.22;;;;;;;;;;4952941;29;20398;-78
2023/01/12 02:31:54;;;;;;;16.63;4.63;;;;;;;;;;4953291;29;20083;-77
2023/01/12 02:34:26;;;;;;;26.02;4.55;;;;;;;;;;4951705;29;20058;-78
2023/01/12 02:37:11;;;;;;;22.50;4.40;;;;;;;;;;4921379;29;20051;-78
2023/01/12 02:39:40;;;;;;;25.38;5.50;;;;;;;;;;4953394;29;20126;-78
2023/01/12 02:42:40;;;;;;;21.63;4.38;;;;;;;;;;4955283;28;20047;-78
2023/01/12 02:45:25;;;;;;;20.92;4.00;;;;;;;;;;4961371;28;20434;-78
2023/01/12 02:47:57;;;;;;;18.23;4.03;;;;;;;;;;4952212;28;20062;-77
2023/01/12 02:50:27;;;;;;;19.85;4.25;;;;;;;;;;5013497;28;20081;-77
2023/01/12 02:52:56;;;;;;;22.27;4.50;;;;;;;;;;5013711;28;20076;-77
2023/01/12 02:55:22;;;;;;;22.38;4.82;;;;;;;;;;5014114;28;20049;-78
2023/01/12 02:57:49;;;;;;;16.58;4.13;;;;;;;;;;5023890;28;20132;-77
2023/01/12 03:00:16;;;;;;;19.15;4.30;;;;;;;;;;5020433;28;20465;-77
2023/01/12 03:02:42;;;;;;;19.42;4.75;;;;;;;;;;5025846;28;20041;-77
2023/01/12 03:05:08;;;;;;;19.63;4.75;;;;;;;;;;5013413;28;20125;-77
2023/01/12 03:07:38;;;;;;;28.85;6.78;;;;;;;;;;5013017;28;20042;-78
2023/01/12 03:10:17;;;;;;;25.00;5.53;;;;;;;;;;5018171;28;20038;-77
2023/01/12 03:12:44;;;;;;;17.75;5.30;;;;;;;;;;5012926;28;20049;-77
2023/01/12 03:15:12;;;;;;;19.95;4.78;;;;;;;;;;5020118;28;20042;-78
2023/01/12 03:18:04;;;;;;;25.67;5.07;;;;;;;;;;5028439;28;20396;-77
2023/01/12 03:20:32;;;;;;;20.27;5.15;;;;;;;;;;5024356;28;20136;-77
2023/01/12 03:23:05;;;;;;;21.80;4.88;;;;;;;;;;5014108;28;20041;-76
2023/01/12 03:25:33;;;;;;;26.90;5.05;;;;;;;;;;5016605;28;20046;-77
2023/01/12 03:28:00;;;;;;;19.83;5.22;;;;;;;;;;5016547;28;20076;-77
2023/01/12 03:30:48;;;;;;;24.25;5.57;;;;;;;;;;5043301;28;20045;-76
2023/01/12 03:33:15;;;;;;;26.80;5.35;;;;;;;;;;5023439;28;20045;-76
2023/01/12 03:35:45;;;;;;;27.52;5.88;;;;;;;;;;5016637;28;20045;-76
2023/01/12 03:38:11;;;;;;;25.65;5.82;;;;;;;;;;5029911;28;20502;-76
2023/01/12 03:40:41;;;;;;;32.75;7.10;;;;;;;;;;5035318;28;20049;-76
2023/01/12 03:43:17;;;;;;;26.77;5.95;;;;;;;;;;5035562;28;20483;-77
2023/01/12 03:45:58;;;;;;;27.98;6.32;;;;;;;;;;5034783;28;20053;-77
2023/01/12 03:48:24;;;;;;;31.10;7.45;;;;;;;;;;5024270;28;20081;-76
2023/01/12 03:50:56;;;;;;;22.42;5.90;;;;;;;;;;5022607;28;20057;-76
2023/01/12 03:53:23;;;;;;;29.25;6.28;;;;;;;;;;5023083;28;20424;-76
2023/01/12 03:55:51;;;;;;;21.10;4.95;;;;;;;;;;5024446;28;20045;-76
2023/01/12 03:58:18;;;;;;;25.05;6.75;;;;;;;;;;5016535;28;20053;-76
2023/01/12 04:00:44;;;;;;;24.08;5.65;;;;;;;;;;5016512;28;20064;-76
2023/01/12 04:03:11;;;;;;;20.08;5.07;;;;;;;;;;5022264;28;20042;-76
2023/01/12 04:05:38;;;;;;;23.15;5.30;;;;;;;;;;5018492;28;20077;-76
2023/01/12 04:08:05;;;;;;;22.67;4.82;;;;;;;;;;5036296;28;20115;-77
2023/01/12 04:10:31;;;;;;;22.95;4.78;;;;;;;;;;5018294;28;20050;-76
2023/01/12 04:12:57;;;;;;;25.60;5.07;;;;;;;;;;5027061;28;20091;-76
2023/01/12 04:15:23;;;;;;;23.08;4.32;;;;;;;;;;5017120;28;20058;-77
2023/01/12 04:17:49;;;;;;;17.50;4.22;;;;;;;;;;5021070;28;20495;-76
2023/01/12 04:20:15;;;;;;;16.67;4.38;;;;;;;;;;5032967;28;20041;-76
2023/01/12 04:22:42;;;;;;;19.42;5.07;;;;;;;;;;5023526;28;20038;-77
2023/01/12 04:25:08;;;;;;;16.83;3.60;;;;;;;;;;5020249;28;20038;-76
2023/01/12 04:27:34;;;;;;;10.18;3.55;;;;;;;;;;5024255;28;20053;-76
2023/01/12 04:30:00;;;;;;;14.90;3.45;;;;;;;;;;5015097;28;20448;-76
2023/01/12 04:32:26;;;;;;;11.05;3.35;;;;;;;;;;5046188;28;20049;-76
2023/01/12 04:34:55;;;;;;;15.30;3.10;;;;;;;;;;5015150;28;20045;-76
2023/01/12 04:37:21;;;;;;;15.77;3.28;;;;;;;;;;5034063;28;20167;-76
2023/01/12 04:39:47;;;;;;;11.48;2.95;;;;;;;;;;5030025;28;20128;-76
2023/01/12 04:44:58;;;;;;;11.23;3.45;;;;;;;;;;5016273;28;20054;-76
2023/01/12 04:47:24;;;;;;;13.27;3.50;;;;;;;;;;5014429;28;20121;-76
2023/01/12 04:49:50;;;;;;;13.43;3.70;;;;;;;;;;5013821;28;20097;-76
2023/01/12 04:52:16;;;;;;;14.85;3.42;;;;;;;;;;5017343;28;20046;-76
2023/01/12 04:54:42;;;;;;;12.55;3.90;;;;;;;;;;5034314;28;20073;-76
2023/01/12 04:57:08;;;;;;;14.15;3.33;;;;;;;;;;5034347;28;20569;-76
2023/01/12 04:59:34;;;;;;;18.08;4.32;;;;;;;;;;5017986;28;20485;-76
2023/01/12 05:02:00;;;;;;;19.85;3.63;;;;;;;;;;5035051;28;20045;-76
2023/01/12 05:04:26;;;;;;;13.18;3.30;;;;;;;;;;5034358;28;20041;-76
2023/01/12 05:06:52;;;;;;;12.82;3.25;;;;;;;;;;5034820;28;20045;-76
2023/01/12 05:12:03;;;;;;;14.15;3.65;;;;;;;;;;5050239;28;20055;-76
2023/01/12 05:14:29;;;;;;;12.50;3.30;;;;;;;;;;5031575;28;20144;-76
2023/01/12 05:16:55;;;;;;;11.80;4.03;;;;;;;;;;5015188;28;20046;-77
2023/01/12 05:19:21;;;;;;;13.95;3.20;;;;;;;;;;5014915;28;20056;-76
2023/01/12 05:21:47;;;;;;;9.65;3.03;;;;;;;;;;5015131;28;20042;-76
2023/01/12 05:24:13;;;;;;;14.38;3.72;;;;;;;;;;5013382;28;20053;-76
2023/01/12 05:26:39;;;;;;;7.75;2.95;;;;;;;;;;5022509;28;20045;-77
2023/01/12 05:29:05;;;;;;;12.88;3.00;;;;;;;;;;5028891;28;20049;-77
2023/01/12 05:31:33;;;;;;;10.20;3.00;;;;;;;;;;5001806;28;20051;-76
2023/01/12 05:33:59;;;;;;;9.82;2.80;;;;;;;;;;5029472;28;20049;-76
2023/01/12 05:36:25;;;;;;;6.28;2.35;;;;;;;;;;5034106;28;20037;-76
2023/01/12 05:38:51;;;;;;;6.30;2.20;;;;;;;;;;5032658;28;20057;-76
2023/01/12 05:41:17;;;;;;;6.00;2.08;;;;;;;;;;5014401;28;20126;-76
2023/01/12 05:43:49;;;;;;;7.47;2.40;;;;;;;;;;5014807;28;20044;-76
2023/01/12 05:46:26;;;;;;;6.15;2.40;;;;;;;;;;5027710;28;20124;-76
2023/01/12 05:48:53;;;;;;;5.45;2.40;;;;;;;;;;5015016;28;20050;-76
2023/01/12 05:51:19;;;;;;;4.35;1.92;;;;;;;;;;5039458;28;20048;-76
2023/01/12 05:53:45;;;;;;;5.68;2.15;;;;;;;;;;4999461;28;20139;-76
2023/01/12 05:56:16;;;;;;;4.68;2.10;;;;;;;;;;5031816;28;20057;-79
2023/01/12 05:58:42;;;;;;;5.80;2.40;;;;;;;;;;5015817;28;20085;-79
2023/01/12 06:01:09;;;;;;;3.17;1.80;;;;;;;;;;5025463;28;20052;-78
2023/01/12 06:03:35;;;;;;;3.40;1.70;;;;;;;;;;5032901;28;20484;-77
2023/01/12 06:06:01;;;;;;;3.28;1.80;;;;;;;;;;5032337;28;20053;-76
2023/01/12 06:08:27;;;;;;;4.90;2.10;;;;;;;;;;5032422;28;20530;-76
2023/01/12 06:10:53;;;;;;;3.13;2.00;;;;;;;;;;5029698;28;20507;-77
2023/01/12 06:16:05;;;;;;;4.70;2.17;;;;;;;;;;5029842;28;20135;-77
2023/01/12 06:18:35;;;;;;;4.28;2.20;;;;;;;;;;5019400;28;20131;-77
2023/01/12 06:21:01;;;;;;;7.60;2.92;;;;;;;;;;5038727;28;20045;-78
2023/01/12 06:23:27;;;;;;;8.82;2.85;;;;;;;;;;5028984;28;20053;-78
2023/01/12 06:25:53;;;;;;;10.82;3.20;;;;;;;;;;5031830;28;20103;-78
2023/01/12 06:28:20;;;;;;;15.00;3.85;;;;;;;;;;5013898;28;20073;-78
2023/01/12 06:30:54;;;;;;;15.05;4.50;;;;;;;;;;5012279;28;20078;-78
2023/01/12 06:33:20;;;;;;;21.77;4.40;;;;;;;;;;5013860;28;20543;-78
2023/01/12 06:35:49;;;;;;;21.92;4.38;;;;;;;;;;4997752;28;20041;-79
2023/01/12 06:38:15;;;;;;;20.98;4.38;;;;;;;;;;5012383;28;20038;-78
2023/01/12 06:40:41;;;;;;;24.85;5.93;;;;;;;;;;4996612;28;20046;-83
2023/01/12 06:43:07;;;;;;;29.88;5.65;;;;;;;;;;5013321;28;20124;-78
2023/01/12 06:45:33;;;;;;;29.85;4.95;;;;;;;;;;5029073;28;20077;-78
2023/01/12 06:47:59;;;;;;;25.17;5.05;;;;;;;;;;5012340;28;20054;-78
2023/01/12 06:50:25;;;;;;;23.08;5.03;;;;;;;;;;5025653;28;20099;-78
2023/01/12 06:52:51;;;;;;;24.30;5.65;;;;;;;;;;5033270;28;20042;-78
2023/01/12 06:55:18;;;;;;;27.58;5.43;;;;;;;;;;5031289;28;20073;-78
2023/01/12 06:57:44;;;;;;;28.20;4.85;;;;;;;;;;5035287;28;20395;-78
2023/01/12 07:00:12;;;;;;;16.90;4.22;;;;;;;;;;5049491;28;20046;-78
2023/01/12 07:02:38;;;;;;;22.02;5.38;;;;;;;;;;5028246;28;20050;-78
2023/01/12 07:05:05;;;;;;;29.27;5.20;;;;;;;;;;5028935;28;20502;-79
2023/01/12 07:07:31;;;;;;;17.23;4.32;;;;;;;;;;5024645;28;21788;-79
2023/01/12 07:09:57;;;;;;;23.73;5.05;;;;;;;;;;5039549;28;20055;-79
2023/01/12 07:12:23;;;;;;;27.80;5.00;;;;;;;;;;5025943;28;20038;-79
2023/01/12 07:14:49;;;;;;;24.65;5.35;;;;;;;;;;5022068;28;20057;-78
2023/01/12 07:17:15;;;;;;;19.92;4.65;;;;;;;;;;5023269;28;20077;-78
2023/01/12 07:19:42;;;;;;;22.70;5.03;;;;;;;;;;5021155;28;20056;-78
2023/01/12 07:22:08;;;;;;;24.45;4.28;;;;;;;;;;5020906;28;20053;-78
2023/01/12 07:24:34;;;;;;;16.58;4.38;;;;;;;;;;5023815;28;20050;-79
2023/01/12 07:27:00;;;;;;;20.90;4.53;;;;;;;;;;5027109;28;20053;-78
2023/01/12 07:29:26;;;;;;;14.77;4.07;;;;;;;;;;5028515;28;20042;-78
2023/01/12 07:31:52;;;;;;;25.73;4.70;;;;;;;;;;5020633;28;20049;-78
2023/01/12 07:34:18;;;;;;;22.23;5.05;;;;;;;;;;5018905;28;20045;-78
2023/01/12 07:36:47;;;;;;;14.40;4.55;;;;;;;;;;5025598;28;20044;-78
2023/01/12 07:39:13;;;;;;;23.20;4.15;;;;;;;;;;5018345;28;20072;-81
2023/01/12 07:44:24;;;;;;;22.25;4.45;;;;;;;;;;5018643;28;20049;-78
2023/01/12 07:46:50;;;;;;;20.92;5.15;;;;;;;;;;5033810;28;20480;-79
2023/01/12 07:49:16;;;;;;;19.80;4.53;;;;;;;;;;5036942;28;20131;-79
2023/01/12 07:51:42;;;;;;;26.30;4.82;;;;;;;;;;5037240;28;20452;-78
2023/01/12 07:54:08;;;;;;;19.10;4.53;;;;;;;;;;5043847;28;20037;-78
2023/01/12 07:56:34;;;;;;;24.77;4.55;;;;;;;;;;5038899;28;20134;-78
2023/01/12 07:59:00;;;;;;;18.95;4.30;;;;;;;;;;5042066;28;20049;-78
2023/01/12 08:01:26;;;;;;;23.30;5.25;;;;;;;;;;5041740;28;20075;-80
2023/01/12 08:03:52;;;;;;;21.70;5.65;;;;;;;;;;5044815;28;20396;-80
2023/01/12 08:06:18;;;;;;;18.58;4.60;;;;;;;;;;5033869;28;20050;-79
2023/01/12 08:08:44;;;;;;;19.77;5.05;;;;;;;;;;5027232;28;20080;-79
2023/01/12 08:11:11;;;;;;;22.10;4.75;;;;;;;;;;5033098;28;20042;-79
2023/01/12 08:13:37;;;;;;;26.40;5.28;;;;;;;;;;5021865;28;20084;-78
2023/01/12 08:16:17;;;;;;;17.83;4.90;;;;;;;;;;5023108;28;20045;-80
2023/01/12 08:18:55;;;;;;;19.35;4.45;;;;;;;;;;5031369;28;20046;-79
2023/01/12 08:21:24;;;;;;;20.85;4.18;;;;;;;;;;5032038;28;20046;-79
2023/01/12 08:23:53;;;;;;;21.63;4.75;;;;;;;;;;5042765;28;20376;-79
2023/01/12 08:26:22;;;;;;;18.92;4.32;;;;;;;;;;5031707;28;20050;-78
2023/01/12 08:29:01;;;;;;;22.75;5.18;;;;;;;;;;5026991;28;20045;-78
2023/01/12 08:31:27;;;;;;;21.85;4.93;;;;;;;;;;5035504;28;20041;-78
2023/01/12 08:33:54;;;;;;;19.02;6.40;;;;;;;;;;5028579;28;20076;-78
2023/01/12 08:36:20;;;;;;;15.63;4.20;;;;;;;;;;5022713;28;20041;-76
2023/01/12 08:38:46;;;;;;;16.02;4.30;;;;;;;;;;5028645;28;20042;-78
2023/01/12 08:41:31;;;;;;;15.23;4.25;;;;;;;;;;5019782;28;20042;-77
2023/01/12 08:44:05;;;;;;;24.05;4.97;;;;;;;;;;5016003;28;20046;-80
2023/01/12 08:46:33;;;;;;;20.05;4.13;;;;;;;;;;5033611;28;20049;-78
2023/01/12 08:48:59;;;;;;;21.38;4.55;;;;;;;;;;5018573;28;20050;-78
2023/01/12 08:51:26;;;;;;;24.52;5.85;;;;;;;;;;5015834;28;20052;-78
2023/01/12 08:53:52;;;;;;;18.38;4.18;;;;;;;;;;5020250;28;20561;-78
2023/01/12 08:56:18;;;;;;;15.13;3.83;;;;;;;;;;5015741;28;20046;-79
2023/01/12 08:58:44;;;;;;;14.30;3.60;;;;;;;;;;5014848;28;20373;-77
2023/01/12 09:01:12;;;;;;;16.92;3.75;;;;;;;;;;5018397;28;20356;-77
2023/01/12 09:03:38;;;;;;;16.13;3.83;;;;;;;;;;5034564;28;20053;-77
2023/01/12 09:06:11;;;;;;;13.68;3.40;;;;;;;;;;5029452;28;20044;-77
2023/01/12 09:08:37;;;;;;;16.25;4.25;;;;;;;;;;5027401;28;20045;-77
2023/01/12 09:11:04;;;;;;;17.60;3.55;;;;;;;;;;5024683;28;20132;-77
2023/01/12 09:13:32;;;;;;;16.88;4.63;;;;;;;;;;5032138;28;20056;-78
2023/01/12 09:16:02;;;;;;;16.40;3.90;;;;;;;;;;5029922;28;20081;-77
2023/01/12 09:18:28;;;;;;;17.50;4.50;;;;;;;;;;5034701;28;20053;-77
2023/01/12 09:21:00;;;;;;;17.80;3.63;;;;;;;;;;5033368;28;20149;-77
2023/01/12 09:23:26;;;;;;;16.65;4.60;;;;;;;;;;5015319;28;20052;-78
2023/01/12 09:25:52;;;;;;;19.13;4.43;;;;;;;;;;5035289;28;20049;-78
2023/01/12 09:28:18;;;;;;;18.48;4.15;;;;;;;;;;5029092;28;20095;-77
2023/01/12 09:30:44;;;;;;;12.82;3.58;;;;;;;;;;5024723;28;20045;-77
2023/01/12 09:33:11;;;;;;;18.88;3.90;;;;;;;;;;5023662;28;20567;-76
2023/01/12 09:35:37;;;;;;;19.48;3.80;;;;;;;;;;5016719;28;20447;-77
2023/01/12 09:38:03;;;;;;;16.70;3.65;;;;;;;;;;5028836;28;20050;-76
2023/01/12 09:40:30;;;;;;;19.35;4.78;;;;;;;;;;5030630;28;20037;-77
2023/01/12 09:48:27;;;;;;;17.70;3.63;;;;;;;;;;5031373;28;20464;-78
2023/01/12 09:51:04;;;;;;;14.88;3.60;;;;;;;;;;5013472;28;20620;-77
2023/01/12 09:53:34;;;;;;;14.43;3.70;;;;;;;;;;5024827;28;20372;-77
2023/01/12 09:56:03;;;;;;;15.65;4.45;;;;;;;;;;5034153;28;20041;-77
2023/01/12 09:58:35;;;;;;;17.00;3.60;;;;;;;;;;5017507;28;20121;-77
2023/01/12 10:01:06;;;;;;;18.70;4.20;;;;;;;;;;5019315;28;20045;-77
2023/01/12 10:03:37;;;;;;;16.17;4.50;;;;;;;;;;5017510;28;20056;-79
2023/01/12 10:06:04;;;;;;;16.02;4.80;;;;;;;;;;5015871;28;20058;-79
2023/01/12 10:08:30;;;;;;;14.05;3.70;;;;;;;;;;5025804;28;20084;-79
2023/01/12 10:11:11;;;;;;;18.30;4.72;;;;;;;;;;5038166;28;20069;-78
2023/01/12 10:13:53;;;;;;;17.00;3.83;;;;;;;;;;5024272;28;20079;-77
2023/01/12 10:16:45;;;;;;;14.90;3.63;;;;;;;;;;5029249;28;20049;-77
2023/01/12 10:19:18;;;;;;;19.50;4.30;;;;;;;;;;5007453;28;20053;-77
2023/01/12 10:21:44;;;;;;;12.38;3.65;;;;;;;;;;5031022;28;20053;-77
2023/01/12 10:24:13;;;;;;;16.88;3.90;;;;;;;;;;5017305;28;20043;-77
2023/01/12 10:26:42;;;;;;;17.58;4.03;;;;;;;;;;5017523;28;20053;-76
2023/01/12 10:29:10;;;;;;;16.15;3.88;;;;;;;;;;5023280;28;20465;-77
2023/01/12 10:31:36;;;;;;;15.77;3.80;;;;;;;;;;5018611;28;20069;-77
2023/01/12 10:34:05;;;;;;;17.15;4.20;;;;;;;;;;5036743;28;20090;-76
2023/01/12 10:36:32;;;;;;;19.13;4.38;;;;;;;;;;5027945;28;20555;-76
2023/01/12 10:39:02;;;;;;;22.60;4.63;;;;;;;;;;5028625;28;20469;-76
2023/01/12 10:41:29;;;;;;;18.20;5.25;;;;;;;;;;5017775;28;20425;-77
2023/01/12 10:43:55;;;;;;;16.60;4.10;;;;;;;;;;5016913;28;20074;-77
2023/01/12 10:46:23;;;;;;;15.35;3.80;;;;;;;;;;5021021;28;20052;-76
2023/01/12 10:48:53;;;;;;;16.90;4.13;;;;;;;;;;5024913;28;20056;-76
2023/01/12 10:51:21;;;;;;;17.50;3.85;;;;;;;;;;5005767;28;20485;-79
2023/01/12 10:53:47;;;;;;;17.73;3.92;;;;;;;;;;5025256;28;20045;-77
2023/01/12 10:56:21;;;;;;;18.90;4.07;;;;;;;;;;5024961;28;20046;-80
2023/01/12 10:58:56;;;;;;;23.45;4.63;;;;;;;;;;5028747;28;20125;-77
2023/01/12 11:01:22;;;;;;;15.57;4.53;;;;;;;;;;5028148;28;20046;-77
2023/01/12 11:03:48;;;;;;;22.05;4.78;;;;;;;;;;5022975;28;20045;-77
2023/01/12 11:06:15;;;;;;;16.60;4.38;;;;;;;;;;5018371;28;20451;-77
2023/01/12 11:08:41;;;;;;;18.90;3.92;;;;;;;;;;5023234;28;20053;-77
2023/01/12 11:11:23;;;;;;;20.70;4.50;;;;;;;;;;5033108;28;20138;-77
2023/01/12 11:13:51;;;;;;;16.90;4.25;;;;;;;;;;5032761;28;20511;-77
2023/01/12 11:16:21;;;;;;;17.73;4.28;;;;;;;;;;5023490;28;20144;-78
2023/01/12 11:18:52;;;;;;;18.52;3.83;;;;;;;;;;5023545;28;20050;-78
2023/01/12 11:21:21;;;;;;;19.48;4.43;;;;;;;;;;5027015;28;20069;-81
2023/01/12 11:23:56;;;;;;;18.52;4.70;;;;;;;;;;5018831;28;20474;-77
2023/01/12 11:26:26;;;;;;;14.57;3.83;;;;;;;;;;5022418;28;20049;-78
2023/01/12 11:28:54;;;;;;;20.83;4.25;;;;;;;;;;5027394;28;20049;-77
2023/01/12 11:31:28;;;;;;;12.57;4.40;;;;;;;;;;5023233;28;20041;-77
2023/01/12 11:34:09;;;;;;;12.38;3.15;;;;;;;;;;5015395;28;20133;-77
2023/01/12 11:36:39;;;;;;;13.13;3.08;;;;;;;;;;5026764;28;20503;-77
2023/01/12 11:39:07;;;;;;;13.90;3.20;;;;;;;;;;5019259;28;20388;-77
2023/01/12 11:41:33;;;;;;;10.32;2.38;;;;;;;;;;5018613;28;20449;-77
2023/01/12 11:44:08;;;;;;;9.93;3.28;;;;;;;;;;5025923;28;20427;-77
2023/01/12 11:46:41;;;;;;;14.80;3.58;;;;;;;;;;5018690;28;20046;-77
2023/01/12 11:49:20;;;;;;;9.02;2.60;;;;;;;;;;5025014;28;20157;-76
2023/01/12 11:51:48;;;;;;;9.98;3.17;;;;;;;;;;5024282;28;20049;-77
2023/01/12 11:54:15;;;;;;;11.43;3.28;;;;;;;;;;5021689;28;20049;-78
2023/01/12 11:56:55;;;;;;;14.52;4.45;;;;;;;;;;5021159;28;20042;-77
2023/01/12 11:59:24;;;;;;;18.33;4.10;;;;;;;;;;5029645;28;20044;-77
2023/01/12 12:02:01;;;;;;;17.73;4.40;;;;;;;;;;5030425;28;20041;-78
2023/01/12 12:04:50;;;;;;;16.55;4.75;;;;;;;;;;5029029;28;20121;-78
2023/01/12 12:07:26;;;;;;;16.20;3.72;;;;;;;;;;4945580;29;20047;-79
2023/01/12 12:09:59;;;;;;;16.87;4.37;;;;;;;;;;4975323;28;20051;-78
2023/01/12 12:12:33;;;;;;;13.85;3.70;;;;;;;;;;4978346;28;20486;-78
2023/01/12 12:15:16;;;;;;;14.50;3.42;;;;;;;;;;4974007;28;20051;-78
2023/01/12 12:17:48;;;;;;;15.32;3.58;;;;;;;;;;4981934;28;20489;-80
2023/01/12 12:20:31;;;;;;;19.77;3.80;;;;;;;;;;4982160;28;20070;-79
2023/01/12 12:23:16;;;;;;;14.32;3.20;;;;;;;;;;4982048;28;20047;-79
2023/01/12 12:25:52;;;;;;;11.80;3.28;;;;;;;;;;4976442;28;20450;-78
2023/01/12 12:28:21;;;;;;;15.85;3.20;;;;;;;;;;4974966;28;20049;-78
2023/01/12 12:30:53;;;;;;;16.63;3.63;;;;;;;;;;4974378;28;20126;-79
2023/01/12 12:33:25;;;;;;;14.15;3.65;;;;;;;;;;4974031;28;20038;-78
2023/01/12 12:36:07;;;;;;;11.98;3.97;;;;;;;;;;4973467;28;20411;-78
2023/01/12 12:38:42;;;;;;;16.83;3.70;;;;;;;;;;4964310;28;20134;-78
2023/01/12 12:47:29;;;;;;;15.10;3.97;;;;;;;;;;5024086;28;20518;-78
2023/01/12 12:49:56;;;;;;;23.60;4.63;;;;;;;;;;5019461;28;20781;-78
2023/01/12 12:52:24;;;;;;;21.17;3.85;;;;;;;;;;5022975;28;20042;-78
2023/01/12 12:54:51;;;;;;;19.60;4.63;;;;;;;;;;5023638;28;20068;-78
2023/01/12 12:57:17;;;;;;;21.92;5.55;;;;;;;;;;5018684;28;20451;-78
2023/01/12 12:59:55;;;;;;;17.83;3.72;;;;;;;;;;5022065;28;20480;-78
2023/01/12 13:02:30;;;;;;;15.48;3.78;;;;;;;;;;5025340;28;20074;-78
2023/01/12 13:04:57;;;;;;;16.90;4.03;;;;;;;;;;5020399;28;20041;-78
2023/01/12 13:07:25;;;;;;;19.45;4.68;;;;;;;;;;5029638;28;20415;-78
2023/01/12 13:09:51;;;;;;;20.67;4.95;;;;;;;;;;5032038;28;20516;-78
2023/01/12 13:12:29;;;;;;;15.73;3.78;;;;;;;;;;5014301;28;20404;-78
2023/01/12 13:15:31;;;;;;;16.33;3.72;;;;;;;;;;5021825;28;20046;-78
2023/01/12 13:17:57;;;;;;;14.75;4.53;;;;;;;;;;4988214;28;20465;-78
2023/01/12 13:20:32;;;;;;;21.30;3.72;;;;;;;;;;5034908;28;20045;-78
2023/01/12 13:22:59;;;;;;;16.50;4.05;;;;;;;;;;5020411;28;20046;-78
2023/01/12 13:25:26;;;;;;;15.15;4.72;;;;;;;;;;5034519;28;20072;-78
2023/01/12 13:28:09;;;;;;;15.18;3.85;;;;;;;;;;5032618;28;20064;-78
2023/01/12 13:30:39;;;;;;;19.98;4.38;;;;;;;;;;5024999;28;20049;-78
2023/01/12 13:33:14;;;;;;;21.85;4.80;;;;;;;;;;5014743;28;20053;-78
2023/01/12 13:35:43;;;;;;;16.58;4.18;;;;;;;;;;5023751;28;20126;-78
2023/01/12 13:38:15;;;;;;;17.10;4.90;;;;;;;;;;5032423;28;20046;-78
2023/01/12 13:40:41;;;;;;;21.52;4.15;;;;;;;;;;5023738;28;20049;-78
2023/01/12 13:43:18;;;;;;;13.70;4.03;;;;;;;;;;5027657;28;20052;-79
2023/01/12 13:46:10;;;;;;;20.73;4.75;;;;;;;;;;5021837;28;20084;-77
2023/01/12 13:48:36;;;;;;;21.38;4.50;;;;;;;;;;5027574;28;20065;-78
2023/01/12 13:51:23;;;;;;;19.08;4.00;;;;;;;;;;5034222;28;20111;-78
2023/01/12 13:54:03;;;;;;;12.85;4.18;;;;;;;;;;5018208;28;20045;-78
2023/01/12 13:56:29;;;;;;;21.88;4.28;;;;;;;;;;5014030;28;20050;-78
2023/01/12 13:59:02;;;;;;;17.40;4.97;;;;;;;;;;5023054;28;20077;-79
2023/01/12 14:01:34;;;;;;;20.05;4.65;;;;;;;;;;5031039;28;20504;-80
2023/01/12 14:04:18;;;;;;;16.50;4.65;;;;;;;;;;5030371;28;20046;-79
2023/01/12 14:06:44;;;;;;;16.55;4.28;;;;;;;;;;5025482;28;20045;-79
2023/01/12 14:09:22;;;;;;;20.25;4.22;;;;;;;;;;5040394;28;20069;-79
2023/01/12 14:11:51;;;;;;;19.88;4.30;;;;;;;;;;5026097;28;20045;-79
2023/01/12 14:19:58;;;;;;;15.73;3.72;;;;;;;;;;5033989;28;20408;-80
2023/01/12 14:22:24;;;;;;;14.93;3.80;;;;;;;;;;5042682;28;20054;-79
2023/01/12 14:24:50;;;;;;;13.77;4.18;;;;;;;;;;5033841;28;20119;-79
2023/01/12 14:27:20;;;;;;;22.38;4.03;;;;;;;;;;5027271;28;20491;-79
2023/01/12 14:29:46;;;;;;;13.40;4.10;;;;;;;;;;5029372;28;20045;-79
2023/01/12 14:32:13;;;;;;;16.25;4.32;;;;;;;;;;5020617;28;20356;-79
2023/01/12 14:34:45;;;;;;;15.32;4.10;;;;;;;;;;5027440;28;20107;-79
2023/01/12 14:37:41;;;;;;;10.65;3.58;;;;;;;;;;5024145;28;20131;-77
2023/01/12 14:40:16;;;;;;;9.70;3.13;;;;;;;;;;5006228;28;20416;-78
2023/01/12 14:48:24;;;;;;;8.95;2.60;;;;;;;;;;5025668;28;20125;-78
2023/01/12 14:51:00;;;;;;;9.77;2.40;;;;;;;;;;5027801;28;20111;-78
2023/01/12 14:53:37;;;;;;;8.90;2.83;;;;;;;;;;5032488;28;20484;-78
2023/01/12 14:56:09;;;;;;;5.70;3.30;;;;;;;;;;5020398;28;20053;-77
2023/01/12 14:58:36;;;;;;;7.38;2.70;;;;;;;;;;5013463;28;20477;-77
2023/01/12 15:01:04;;;;;;;9.35;2.92;;;;;;;;;;5032840;28;20042;-80
2023/01/12 15:03:30;;;;;;;7.20;3.17;;;;;;;;;;5016533;28;20038;-79
2023/01/12 15:05:58;;;;;;;7.10;3.53;;;;;;;;;;5029899;28;20045;-78
2023/01/12 15:08:29;;;;;;;8.70;3.30;;;;;;;;;;5025463;28;20054;-79
2023/01/12 15:11:08;;;;;;;5.18;2.97;;;;;;;;;;5023213;28;20055;-78
2023/01/12 15:13:35;;;;;;;7.70;3.40;;;;;;;;;;5032638;28;20503;-77
2023/01/12 15:27:18;;;;;;;11.85;3.97;;;;;;;;;;5029174;28;20053;-81
2023/01/12 15:29:44;;;;;;;14.90;4.28;;;;;;;;;;5036568;28;20041;-75
2023/01/12 15:32:34;;;;;;;14.85;4.43;;;;;;;;;;5034979;28;20111;-76
2023/01/12 15:35:01;;;;;;;14.65;4.40;;;;;;;;;;5022159;28;20046;-75
2023/01/12 15:37:27;;;;;;;15.77;5.47;;;;;;;;;;5023711;28;20045;-76